Time;durP1;ratioP1;P1;durP2;ratioP2;P2;SDS_P1;SDS_P2;PMS_P1;PMS_P2;Temp;Humidity;BMP_temperature;BMP_pressure;BME280_temperature;BME280_humidity;BME280_pressure;Samples;Min_cycle;Max_cycle;Signal;HPM_P1;HPM_P2
2023/04/21 00:34:19;;;;;;;1999.90;999.90;;;;;;;;;;6123616;23;20160;-71
2023/04/21 00:37:04;;;;;;;1999.90;999.90;;;;;;;;;;6124567;23;20568;-70
2023/04/21 00:39:49;;;;;;;1999.90;999.90;;;;;;;;;;6125110;23;20191;-71
2023/04/21 00:42:34;;;;;;;1999.90;999.90;;;;;;;;;;6124946;23;20203;-66
2023/04/21 00:45:19;;;;;;;1999.90;999.90;;;;;;;;;;6125070;23;20171;-68
2023/04/21 00:48:04;;;;;;;1999.90;999.90;;;;;;;;;;6125004;23;20191;-72
2023/04/21 00:50:50;;;;;;;1999.90;999.90;;;;;;;;;;6125079;23;20183;-69
2023/04/21 00:53:35;;;;;;;1999.90;999.90;;;;;;;;;;6122895;23;20206;-70
2023/04/21 00:56:21;;;;;;;1999.90;999.90;;;;;;;;;;6123425;23;20652;-72
2023/04/21 00:59:06;;;;;;;1999.90;999.90;;;;;;;;;;6125126;23;20168;-71
2023/04/21 01:01:51;;;;;;;1999.90;999.90;;;;;;;;;;6123440;23;20383;-71
2023/04/21 01:04:38;;;;;;;1999.90;999.90;;;;;;;;;;6124007;23;20172;-68
2023/04/21 01:07:25;;;;;;;1999.90;999.90;;;;;;;;;;6124720;23;20656;-72
2023/04/21 01:10:10;;;;;;;1999.90;999.90;;;;;;;;;;6124760;23;20247;-71
2023/04/21 01:12:55;;;;;;;1999.90;999.90;;;;;;;;;;6124867;23;20207;-72
2023/04/21 01:15:40;;;;;;;1999.90;999.90;;;;;;;;;;6123117;23;20455;-69
2023/04/21 01:18:25;;;;;;;1999.90;999.90;;;;;;;;;;6124842;23;20164;-72
2023/04/21 01:21:10;;;;;;;1999.90;999.90;;;;;;;;;;6124637;23;20289;-72
2023/04/21 01:23:56;;;;;;;1999.90;999.90;;;;;;;;;;6124577;23;20211;-71
2023/04/21 01:26:43;;;;;;;1999.90;999.90;;;;;;;;;;6124499;23;20632;-72
2023/04/21 01:29:28;;;;;;;1999.90;999.90;;;;;;;;;;6124528;23;20212;-72
2023/04/21 01:32:15;;;;;;;1999.90;999.90;;;;;;;;;;6124737;23;20266;-72
2023/04/21 01:35:01;;;;;;;1999.90;999.90;;;;;;;;;;6124495;23;20509;-71
2023/04/21 01:37:46;;;;;;;1999.90;999.90;;;;;;;;;;6124362;23;20167;-67
2023/04/21 01:40:32;;;;;;;1999.90;999.90;;;;;;;;;;6124456;23;20310;-69
2023/04/21 01:43:18;;;;;;;1999.90;999.90;;;;;;;;;;6124501;23;20206;-69
2023/04/21 01:46:03;;;;;;;1999.90;999.90;;;;;;;;;;6124446;23;20175;-70
2023/04/21 01:48:50;;;;;;;1999.90;999.90;;;;;;;;;;6123766;23;20203;-70
2023/04/21 01:51:35;;;;;;;1999.90;999.90;;;;;;;;;;6124358;23;20513;-72
2023/04/21 01:54:19;;;;;;;1999.90;999.90;;;;;;;;;;6124199;23;20829;-70
2023/04/21 01:57:06;;;;;;;1999.90;999.90;;;;;;;;;;6124361;23;20620;-72
2023/04/21 01:59:51;;;;;;;1999.90;999.90;;;;;;;;;;6124439;23;20640;-70
2023/04/21 02:02:36;;;;;;;1999.90;999.90;;;;;;;;;;6124312;23;20702;-72
2023/04/21 02:05:21;;;;;;;1999.90;999.90;;;;;;;;;;6122432;23;20379;-72
2023/04/21 02:08:06;;;;;;;1999.90;999.90;;;;;;;;;;6124232;23;20195;-70
2023/04/21 02:10:51;;;;;;;1999.90;999.90;;;;;;;;;;6125176;23;20180;-68
2023/04/21 02:13:37;;;;;;;1999.90;999.90;;;;;;;;;;6124171;23;20207;-72
2023/04/21 02:16:25;;;;;;;1999.90;999.90;;;;;;;;;;6124549;23;20216;-68
2023/04/21 02:19:10;;;;;;;1999.90;999.90;;;;;;;;;;6124681;23;20632;-66
2023/04/21 02:21:55;;;;;;;1999.90;999.90;;;;;;;;;;6124866;23;20606;-70
2023/04/21 02:24:40;;;;;;;1999.90;999.90;;;;;;;;;;6124293;23;20171;-70
2023/04/21 02:27:25;;;;;;;1999.90;999.90;;;;;;;;;;6124558;23;20663;-68
2023/04/21 02:30:12;;;;;;;1999.90;999.90;;;;;;;;;;6124419;23;20549;-72
2023/04/21 02:32:57;;;;;;;1999.90;999.90;;;;;;;;;;6124224;23;20211;-67
2023/04/21 02:35:42;;;;;;;1999.90;999.90;;;;;;;;;;6124440;23;20175;-68
2023/04/21 02:38:27;;;;;;;1999.90;999.90;;;;;;;;;;6123713;23;20432;-68
2023/04/21 02:41:12;;;;;;;1999.90;999.90;;;;;;;;;;6124322;23;20699;-72
2023/04/21 02:43:57;;;;;;;1999.90;999.90;;;;;;;;;;6124317;23;20211;-71
2023/04/21 02:46:44;;;;;;;1999.90;999.90;;;;;;;;;;6124162;23;20171;-70
2023/04/21 02:49:30;;;;;;;1999.90;999.90;;;;;;;;;;6124390;23;20164;-68
2023/04/21 02:52:14;;;;;;;1999.90;999.90;;;;;;;;;;6123358;23;20381;-71
2023/04/21 02:54:59;;;;;;;1999.90;999.90;;;;;;;;;;6124394;23;20543;-71
2023/04/21 02:57:44;;;;;;;1999.90;999.90;;;;;;;;;;6124109;23;20164;-71
2023/04/21 03:00:29;;;;;;;1999.90;999.90;;;;;;;;;;6124668;23;20553;-71
2023/04/21 03:03:16;;;;;;;1999.90;999.90;;;;;;;;;;6125885;23;20203;-71
2023/04/21 03:06:02;;;;;;;1999.90;999.90;;;;;;;;;;6126078;23;20187;-72
2023/04/21 03:08:47;;;;;;;1999.90;999.90;;;;;;;;;;6125686;23;20271;-72
2023/04/21 03:11:32;;;;;;;1999.90;999.90;;;;;;;;;;6125749;23;20259;-69
2023/04/21 03:14:16;;;;;;;1999.90;999.90;;;;;;;;;;6126033;23;20186;-70
2023/04/21 03:17:02;;;;;;;1999.90;999.90;;;;;;;;;;6126391;23;20216;-69
2023/04/21 03:19:48;;;;;;;1999.90;999.90;;;;;;;;;;6125997;23;20612;-69
2023/04/21 03:22:33;;;;;;;1999.90;999.90;;;;;;;;;;6126210;23;20207;-68
2023/04/21 03:25:18;;;;;;;1999.90;999.90;;;;;;;;;;6125954;23;20211;-68
2023/04/21 03:28:03;;;;;;;1999.90;999.90;;;;;;;;;;6124892;23;20402;-69
2023/04/21 03:30:48;;;;;;;1999.90;999.90;;;;;;;;;;6125876;23;20216;-69
2023/04/21 03:33:34;;;;;;;1999.90;999.90;;;;;;;;;;6125683;23;20597;-69
2023/04/21 03:36:20;;;;;;;1999.90;999.90;;;;;;;;;;6125618;23;20172;-69
2023/04/21 03:39:05;;;;;;;1999.90;999.90;;;;;;;;;;6125233;23;20167;-69
2023/04/21 03:41:50;;;;;;;1999.90;999.90;;;;;;;;;;6124544;23;20380;-70
2023/04/21 03:44:35;;;;;;;1999.90;999.90;;;;;;;;;;6124772;23;20171;-69
2023/04/21 03:47:20;;;;;;;1999.90;999.90;;;;;;;;;;6125733;23;20184;-71
2023/04/21 03:50:06;;;;;;;1999.90;999.90;;;;;;;;;;6125856;23;20692;-70
2023/04/21 03:52:52;;;;;;;1999.90;999.90;;;;;;;;;;6125755;23;20300;-71
2023/04/21 03:55:37;;;;;;;1999.90;999.90;;;;;;;;;;6125269;23;20505;-70
2023/04/21 03:58:22;;;;;;;1999.90;999.90;;;;;;;;;;6125673;23;20171;-68
2023/04/21 04:01:07;;;;;;;1999.90;999.90;;;;;;;;;;6125738;23;20168;-68
2023/04/21 04:03:53;;;;;;;1999.90;999.90;;;;;;;;;;6125706;23;20219;-71
2023/04/21 04:06:38;;;;;;;1999.90;999.90;;;;;;;;;;6125845;23;20624;-70
2023/04/21 04:09:24;;;;;;;1999.90;999.90;;;;;;;;;;6126157;23;20514;-69
2023/04/21 04:12:09;;;;;;;1999.90;999.90;;;;;;;;;;6125247;23;20230;-70
2023/04/21 04:14:54;;;;;;;1999.90;999.90;;;;;;;;;;6124950;23;20251;-68
2023/04/21 04:17:40;;;;;;;1999.90;999.90;;;;;;;;;;6123801;23;20379;-70
2023/04/21 04:20:25;;;;;;;1999.90;999.90;;;;;;;;;;6125740;23;20187;-68
2023/04/21 04:23:10;;;;;;;1999.90;999.90;;;;;;;;;;6125562;23;20295;-69
2023/04/21 04:25:56;;;;;;;1999.90;999.90;;;;;;;;;;6125597;23;20167;-71
2023/04/21 04:28:41;;;;;;;1999.90;999.90;;;;;;;;;;6125741;23;20195;-68
2023/04/21 04:31:28;;;;;;;1999.90;999.90;;;;;;;;;;6123093;23;20369;-68
2023/04/21 04:34:14;;;;;;;1999.90;999.90;;;;;;;;;;6124578;23;20176;-68
2023/04/21 04:37:02;;;;;;;1999.90;999.90;;;;;;;;;;6125531;23;20212;-70
2023/04/21 04:39:47;;;;;;;1999.90;999.90;;;;;;;;;;6125408;23;20494;-71
2023/04/21 04:42:33;;;;;;;1999.90;999.90;;;;;;;;;;6125348;23;20203;-71
2023/04/21 04:45:21;;;;;;;1999.90;999.90;;;;;;;;;;6125381;23;20248;-70
2023/04/21 04:48:06;;;;;;;1999.90;999.90;;;;;;;;;;6125288;23;20535;-67
2023/04/21 04:50:51;;;;;;;1999.90;999.90;;;;;;;;;;6125470;23;20211;-71
2023/04/21 04:53:36;;;;;;;1999.90;999.90;;;;;;;;;;6125064;23;20283;-71
2023/04/21 04:56:22;;;;;;;1999.90;999.90;;;;;;;;;;6125331;23;20171;-70
2023/04/21 04:59:08;;;;;;;1999.90;999.90;;;;;;;;;;6124219;23;20507;-70
2023/04/21 05:01:53;;;;;;;1999.90;999.90;;;;;;;;;;6124525;23;20271;-70
2023/04/21 05:04:38;;;;;;;1999.90;999.90;;;;;;;;;;6123726;23;20714;-71
2023/04/21 05:07:23;;;;;;;1999.90;999.90;;;;;;;;;;6124993;23;20219;-70
2023/04/21 05:10:08;;;;;;;1999.90;999.90;;;;;;;;;;6124940;23;20251;-71
2023/04/21 05:12:53;;;;;;;1999.90;999.90;;;;;;;;;;6124967;23;20667;-71
2023/04/21 05:15:40;;;;;;;1999.90;999.90;;;;;;;;;;6125055;23;20179;-71
2023/04/21 05:18:24;;;;;;;1999.90;999.90;;;;;;;;;;6124090;23;20360;-71
2023/04/21 05:21:09;;;;;;;1999.90;999.90;;;;;;;;;;6124657;23;20223;-71
2023/04/21 05:23:54;;;;;;;1999.90;999.90;;;;;;;;;;6127663;23;20213;-73
2023/04/21 05:26:40;;;;;;;1999.90;999.90;;;;;;;;;;6125063;23;20216;-74
2023/04/21 05:29:25;;;;;;;1999.90;999.90;;;;;;;;;;6124902;23;20266;-70
2023/04/21 05:32:11;;;;;;;1999.90;999.90;;;;;;;;;;6124822;23;20215;-74
2023/04/21 05:34:58;;;;;;;1999.90;999.90;;;;;;;;;;6124845;23;20228;-72
2023/04/21 05:37:43;;;;;;;1999.90;999.90;;;;;;;;;;6125104;23;20175;-71
2023/04/21 05:40:28;;;;;;;1999.90;999.90;;;;;;;;;;6125051;23;20171;-73
2023/04/21 05:43:13;;;;;;;1999.90;999.90;;;;;;;;;;6125293;23;20214;-71
2023/04/21 05:45:58;;;;;;;1999.90;999.90;;;;;;;;;;6125515;23;20171;-69
2023/04/21 05:48:44;;;;;;;1999.90;999.90;;;;;;;;;;6125450;23;20198;-73
2023/04/21 05:51:30;;;;;;;1999.90;999.90;;;;;;;;;;6124729;23;20231;-73
2023/04/21 05:54:16;;;;;;;1999.90;999.90;;;;;;;;;;6125283;23;20192;-69
2023/04/21 05:57:01;;;;;;;1999.90;999.90;;;;;;;;;;6124940;23;20167;-73
2023/04/21 05:59:46;;;;;;;1999.90;999.90;;;;;;;;;;6124554;23;20168;-72
2023/04/21 06:02:31;;;;;;;1999.90;999.90;;;;;;;;;;6124579;23;20221;-73
2023/04/21 06:05:17;;;;;;;1999.90;999.90;;;;;;;;;;6124400;23;20219;-73
2023/04/21 06:08:02;;;;;;;1999.90;999.90;;;;;;;;;;6124036;23;20390;-73
2023/04/21 06:10:47;;;;;;;1999.90;999.90;;;;;;;;;;6122456;23;20167;-73
2023/04/21 06:13:33;;;;;;;1999.90;999.90;;;;;;;;;;6123798;23;20288;-73
2023/04/21 06:16:17;;;;;;;1999.90;999.90;;;;;;;;;;6123821;23;20240;-73
2023/04/21 06:19:03;;;;;;;1999.90;999.90;;;;;;;;;;6124542;23;20171;-73
2023/04/21 06:21:49;;;;;;;1999.90;999.90;;;;;;;;;;6124719;23;20203;-73
2023/04/21 06:24:34;;;;;;;1999.90;999.90;;;;;;;;;;6124674;23;20576;-72
2023/04/21 06:27:19;;;;;;;1999.90;999.90;;;;;;;;;;6124833;23;20216;-72
2023/04/21 06:30:04;;;;;;;1999.90;999.90;;;;;;;;;;6124416;23;20191;-73
2023/04/21 06:32:49;;;;;;;1999.90;999.90;;;;;;;;;;6122928;23;20254;-72
2023/04/21 06:35:34;;;;;;;1999.90;999.90;;;;;;;;;;6122722;23;20171;-74
2023/04/21 06:38:21;;;;;;;1999.90;999.90;;;;;;;;;;6123741;23;20164;-71
2023/04/21 06:41:06;;;;;;;1999.90;999.90;;;;;;;;;;6121497;23;20171;-73
2023/04/21 06:43:51;;;;;;;1999.90;999.90;;;;;;;;;;6121295;23;20948;-73
2023/04/21 06:46:35;;;;;;;1999.90;999.90;;;;;;;;;;6122212;23;20171;-73
2023/04/21 06:49:20;;;;;;;1999.90;999.90;;;;;;;;;;6121730;23;20529;-73
2023/04/21 06:52:05;;;;;;;1999.90;999.90;;;;;;;;;;6122111;23;20239;-73
2023/04/21 06:54:51;;;;;;;1999.90;999.90;;;;;;;;;;6122014;23;20226;-73
2023/04/21 06:57:37;;;;;;;1999.90;999.90;;;;;;;;;;6121537;23;20370;-74
2023/04/21 07:00:21;;;;;;;1999.90;999.90;;;;;;;;;;6121361;23;20168;-73
2023/04/21 07:03:06;;;;;;;1999.90;999.90;;;;;;;;;;6122214;23;20204;-72
2023/04/21 07:05:51;;;;;;;1999.90;999.90;;;;;;;;;;6121862;23;20757;-71
2023/04/21 07:08:36;;;;;;;1999.90;999.90;;;;;;;;;;6121604;23;20195;-72
2023/04/21 07:11:22;;;;;;;1999.90;999.90;;;;;;;;;;6120898;23;20183;-73
2023/04/21 07:14:07;;;;;;;1999.90;999.90;;;;;;;;;;6121311;23;20240;-73
2023/04/21 07:16:53;;;;;;;1999.90;999.90;;;;;;;;;;6121443;23;20663;-73
2023/04/21 07:19:38;;;;;;;1999.90;999.90;;;;;;;;;;6122007;23;20251;-73
2023/04/21 07:22:23;;;;;;;1999.90;999.90;;;;;;;;;;6121568;23;20214;-73
2023/04/21 07:25:08;;;;;;;1999.90;999.90;;;;;;;;;;6121667;23;20167;-72
2023/04/21 07:27:55;;;;;;;1999.90;999.90;;;;;;;;;;6120854;23;20187;-73
2023/04/21 07:30:40;;;;;;;1999.90;999.90;;;;;;;;;;6121522;23;20172;-72
2023/04/21 07:33:24;;;;;;;1999.90;999.90;;;;;;;;;;6077233;23;1068436;-73
2023/04/21 07:36:10;;;;;;;1999.90;999.90;;;;;;;;;;6123661;23;20183;-73
2023/04/21 07:38:55;;;;;;;1999.90;999.90;;;;;;;;;;6123722;23;20224;-74
2023/04/21 07:41:39;;;;;;;1999.90;999.90;;;;;;;;;;6123908;23;20171;-73
2023/04/21 07:44:28;;;;;;;1999.90;999.90;;;;;;;;;;6122175;23;20368;-73
2023/04/21 07:47:12;;;;;;;1999.90;999.90;;;;;;;;;;6123652;23;20175;-74
2023/04/21 07:49:57;;;;;;;1999.90;999.90;;;;;;;;;;6123141;23;20191;-73
2023/04/21 07:52:42;;;;;;;1999.90;999.90;;;;;;;;;;6123492;23;20222;-74
2023/04/21 07:55:27;;;;;;;1999.90;999.90;;;;;;;;;;6122377;23;20166;-74
2023/04/21 07:58:12;;;;;;;1999.90;999.90;;;;;;;;;;6123644;23;20168;-73
2023/04/21 08:00:59;;;;;;;1999.90;999.90;;;;;;;;;;6123007;23;20171;-73
2023/04/21 08:03:44;;;;;;;1999.90;999.90;;;;;;;;;;6120750;23;20562;-73
2023/04/21 08:06:29;;;;;;;1999.90;999.90;;;;;;;;;;6122497;23;20239;-73
2023/04/21 08:09:14;;;;;;;1999.90;999.90;;;;;;;;;;6121994;23;20677;-74
2023/04/21 08:11:59;;;;;;;1999.90;999.90;;;;;;;;;;6122510;23;20203;-73
2023/04/21 08:14:44;;;;;;;1999.90;999.90;;;;;;;;;;6121484;23;20391;-73
2023/04/21 08:17:30;;;;;;;1999.90;999.90;;;;;;;;;;6123037;23;20176;-74
2023/04/21 08:20:15;;;;;;;1999.90;999.90;;;;;;;;;;6122661;23;20164;-72
2023/04/21 08:23:00;;;;;;;1999.90;999.90;;;;;;;;;;6122443;23;20255;-73
2023/04/21 08:25:45;;;;;;;1999.90;999.90;;;;;;;;;;6123377;23;20172;-74
2023/04/21 08:28:30;;;;;;;1999.90;999.90;;;;;;;;;;6122441;23;20455;-74
2023/04/21 08:31:15;;;;;;;1999.90;999.90;;;;;;;;;;6124309;23;20172;-73
2023/04/21 08:34:01;;;;;;;1999.90;999.90;;;;;;;;;;6125516;23;20543;-74
2023/04/21 08:36:46;;;;;;;1999.90;999.90;;;;;;;;;;6125224;23;20172;-74
2023/04/21 08:39:31;;;;;;;1999.90;999.90;;;;;;;;;;6125136;23;20163;-74
2023/04/21 08:42:17;;;;;;;1999.90;999.90;;;;;;;;;;6125129;23;20582;-74
2023/04/21 08:45:02;;;;;;;1999.90;999.90;;;;;;;;;;6124172;23;20168;-74
2023/04/21 08:47:48;;;;;;;1999.90;999.90;;;;;;;;;;6123033;23;20304;-73
2023/04/21 08:50:35;;;;;;;1999.90;999.90;;;;;;;;;;6124052;23;21183;-72
2023/04/21 08:53:21;;;;;;;1999.90;999.90;;;;;;;;;;6123651;23;21125;-73
2023/04/21 08:56:06;;;;;;;1999.90;999.90;;;;;;;;;;6123931;23;20273;-73
2023/04/21 08:58:51;;;;;;;1999.90;999.90;;;;;;;;;;6124312;23;20184;-72
2023/04/21 09:01:51;;;;;;;1999.90;999.90;;;;;;;;;;6123346;23;20388;-72
2023/04/21 09:04:38;;;;;;;1999.90;999.90;;;;;;;;;;6124473;23;20208;-72
2023/04/21 09:07:33;;;;;;;1999.90;999.90;;;;;;;;;;6124078;23;20636;-74
2023/04/21 09:10:22;;;;;;;1999.90;999.90;;;;;;;;;;6124678;23;20215;-74
2023/04/21 09:13:07;;;;;;;1999.90;999.90;;;;;;;;;;6124755;23;20206;-74
2023/04/21 09:15:53;;;;;;;1999.90;999.90;;;;;;;;;;6121626;23;20376;-75
2023/04/21 09:18:39;;;;;;;1999.90;999.90;;;;;;;;;;6123448;23;20629;-72
2023/04/21 09:21:28;;;;;;;1999.90;999.90;;;;;;;;;;6123808;23;20172;-75
2023/04/21 09:24:14;;;;;;;1999.90;999.90;;;;;;;;;;6123952;23;20171;-74
2023/04/21 09:27:02;;;;;;;1999.90;999.90;;;;;;;;;;6123580;23;20509;-75
2023/04/21 09:29:48;;;;;;;1999.90;999.90;;;;;;;;;;6124727;23;20237;-75
2023/04/21 09:32:36;;;;;;;1999.90;999.90;;;;;;;;;;6123674;23;20215;-75
2023/04/21 09:35:21;;;;;;;1999.90;999.90;;;;;;;;;;6124668;23;20247;-74
2023/04/21 09:38:10;;;;;;;1999.90;999.90;;;;;;;;;;6124469;23;20240;-75
2023/04/21 09:40:59;;;;;;;1999.90;999.90;;;;;;;;;;6124708;23;20255;-75
2023/04/21 09:43:45;;;;;;;1999.90;999.90;;;;;;;;;;6123884;23;20187;-75
2023/04/21 09:46:32;;;;;;;1999.90;999.90;;;;;;;;;;6123967;23;20383;-75
2023/04/21 09:49:17;;;;;;;1999.90;999.90;;;;;;;;;;6123676;23;20307;-75
2023/04/21 09:52:03;;;;;;;1999.90;999.90;;;;;;;;;;6124112;23;20255;-73
2023/04/21 09:54:49;;;;;;;1999.90;999.90;;;;;;;;;;6124404;23;20250;-75
2023/04/21 09:57:38;;;;;;;1999.90;999.90;;;;;;;;;;6124315;23;20189;-75
2023/04/21 10:00:27;;;;;;;1999.90;999.90;;;;;;;;;;6124409;23;20713;-74
2023/04/21 10:03:12;;;;;;;1999.90;999.90;;;;;;;;;;6123831;23;20592;-72
2023/04/21 10:05:57;;;;;;;1999.90;999.90;;;;;;;;;;6122576;23;20168;-73
2023/04/21 10:08:43;;;;;;;1999.90;999.90;;;;;;;;;;6124003;23;20176;-72
2023/04/21 10:11:28;;;;;;;1999.90;999.90;;;;;;;;;;6123537;23;20212;-73
2023/04/21 10:14:14;;;;;;;1999.90;999.90;;;;;;;;;;6123627;23;20172;-73
2023/04/21 10:17:03;;;;;;;1999.90;999.90;;;;;;;;;;6121477;23;20168;-71
2023/04/21 10:19:49;;;;;;;1999.90;999.90;;;;;;;;;;6124382;23;20216;-72
2023/04/21 10:22:35;;;;;;;1999.90;999.90;;;;;;;;;;6124075;23;20219;-73
2023/04/21 10:25:20;;;;;;;1999.90;999.90;;;;;;;;;;6123964;23;20387;-72
2023/04/21 10:28:06;;;;;;;1999.90;999.90;;;;;;;;;;6122748;23;20245;-73
2023/04/21 10:31:12;;;;;;;1999.90;999.90;;;;;;;;;;6123838;23;20195;-74
2023/04/21 10:34:13;;;;;;;1999.90;999.90;;;;;;;;;;6122286;23;20267;-73
2023/04/21 10:37:14;;;;;;;1999.90;999.90;;;;;;;;;;6123315;23;20174;-73
2023/04/21 10:39:59;;;;;;;1999.90;999.90;;;;;;;;;;6123447;23;20164;-72
2023/04/21 10:42:44;;;;;;;1999.90;999.90;;;;;;;;;;6123149;23;20700;-71
2023/04/21 10:45:30;;;;;;;1999.90;999.90;;;;;;;;;;6124143;23;20211;-73
2023/04/21 10:48:22;;;;;;;1999.90;999.90;;;;;;;;;;6122334;23;20255;-73
2023/04/21 10:51:07;;;;;;;1999.90;999.90;;;;;;;;;;6122662;23;20192;-72
2023/04/21 10:53:52;;;;;;;1999.90;999.90;;;;;;;;;;6123044;23;20183;-74
2023/04/21 10:56:37;;;;;;;1999.90;999.90;;;;;;;;;;6123984;23;20176;-75
2023/04/21 10:59:22;;;;;;;1999.90;999.90;;;;;;;;;;6123804;23;20171;-74
2023/04/21 11:02:08;;;;;;;1999.90;999.90;;;;;;;;;;6124415;23;20218;-74
2023/04/21 11:04:54;;;;;;;1999.90;999.90;;;;;;;;;;6123818;23;20239;-75
2023/04/21 11:07:39;;;;;;;1999.90;999.90;;;;;;;;;;6123743;23;20264;-75
2023/04/21 11:10:24;;;;;;;1999.90;999.90;;;;;;;;;;6123748;23;20584;-76
2023/04/21 11:13:10;;;;;;;1999.90;999.90;;;;;;;;;;6123116;23;20203;-74
2023/04/21 11:15:59;;;;;;;1999.90;999.90;;;;;;;;;;6122169;23;20456;-75
2023/04/21 11:18:44;;;;;;;1999.90;999.90;;;;;;;;;;6123970;23;20171;-76
2023/04/21 11:21:32;;;;;;;1999.90;999.90;;;;;;;;;;6125049;23;20515;-73
2023/04/21 11:24:17;;;;;;;1999.90;999.90;;;;;;;;;;6124947;23;20657;-77
2023/04/21 11:27:02;;;;;;;1999.90;999.90;;;;;;;;;;6125642;23;20208;-74
2023/04/21 11:29:47;;;;;;;1999.90;999.90;;;;;;;;;;6124610;23;20758;-74
2023/04/21 11:32:31;;;;;;;1999.90;999.90;;;;;;;;;;6125550;23;20215;-74
2023/04/21 11:35:16;;;;;;;1999.90;999.90;;;;;;;;;;6125502;23;20175;-74
2023/04/21 11:38:05;;;;;;;1999.90;999.90;;;;;;;;;;6124793;23;20658;-73
2023/04/21 11:40:50;;;;;;;1999.90;999.90;;;;;;;;;;6125541;23;20166;-72
2023/04/21 11:43:36;;;;;;;1999.90;999.90;;;;;;;;;;6125166;23;20207;-72
2023/04/21 11:46:23;;;;;;;1999.90;999.90;;;;;;;;;;6125964;23;20672;-72
2023/04/21 11:49:11;;;;;;;1999.90;999.90;;;;;;;;;;6125829;23;20172;-73
2023/04/21 11:51:56;;;;;;;1999.90;999.90;;;;;;;;;;6124013;23;20374;-73
2023/04/21 11:54:42;;;;;;;1999.90;999.90;;;;;;;;;;6124627;23;20167;-71
2023/04/21 11:57:28;;;;;;;1999.90;999.90;;;;;;;;;;6125364;23;20236;-73
2023/04/21 12:00:14;;;;;;;1999.90;999.90;;;;;;;;;;6123985;23;20247;-72
2023/04/21 12:02:59;;;;;;;1999.90;999.90;;;;;;;;;;6124800;23;20228;-72
2023/04/21 12:05:44;;;;;;;1999.90;999.90;;;;;;;;;;6125835;23;20252;-72
2023/04/21 12:08:29;;;;;;;1999.90;999.90;;;;;;;;;;6125796;23;20172;-72
2023/04/21 12:11:17;;;;;;;1999.90;999.90;;;;;;;;;;6125733;23;20195;-73
2023/04/21 12:14:02;;;;;;;1999.90;999.90;;;;;;;;;;6125488;23;20168;-72
2023/04/21 12:16:48;;;;;;;1999.90;999.90;;;;;;;;;;6124180;23;20451;-72
2023/04/21 12:19:38;;;;;;;1999.90;999.90;;;;;;;;;;6125817;23;20171;-72
2023/04/21 12:22:23;;;;;;;1999.90;999.90;;;;;;;;;;6125895;23;20719;-72
2023/04/21 12:25:09;;;;;;;1999.90;999.90;;;;;;;;;;6125400;23;20259;-72
2023/04/21 12:27:58;;;;;;;1999.90;999.90;;;;;;;;;;6125635;23;20179;-72
2023/04/21 12:30:43;;;;;;;1999.90;999.90;;;;;;;;;;6125441;23;20536;-72
2023/04/21 12:33:28;;;;;;;1999.90;999.90;;;;;;;;;;6124982;23;20214;-73
2023/04/21 12:36:13;;;;;;;1999.90;999.90;;;;;;;;;;6124841;23;20171;-73
2023/04/21 12:38:58;;;;;;;1999.90;999.90;;;;;;;;;;6125288;23;20598;-73
2023/04/21 12:41:43;;;;;;;1999.90;999.90;;;;;;;;;;6125193;23;20543;-73
2023/04/21 12:44:29;;;;;;;1999.90;999.90;;;;;;;;;;6125289;23;20171;-73
2023/04/21 12:47:14;;;;;;;1999.90;999.90;;;;;;;;;;6125220;23;20168;-73
2023/04/21 12:50:00;;;;;;;1999.90;999.90;;;;;;;;;;6124688;23;20731;-74
2023/04/21 12:52:44;;;;;;;1999.90;999.90;;;;;;;;;;6125008;23;20219;-72
2023/04/21 12:55:29;;;;;;;1999.90;999.90;;;;;;;;;;6124574;23;20612;-74
2023/04/21 12:58:15;;;;;;;1999.90;999.90;;;;;;;;;;6124840;23;20672;-74
2023/04/21 13:01:01;;;;;;;1999.90;999.90;;;;;;;;;;6123961;23;20166;-75
2023/04/21 13:03:46;;;;;;;1999.90;999.90;;;;;;;;;;6123055;23;20384;-73
2023/04/21 13:06:32;;;;;;;1999.90;999.90;;;;;;;;;;6124739;23;20248;-74
2023/04/21 13:09:16;;;;;;;1999.90;999.90;;;;;;;;;;6124865;23;20680;-74
2023/04/21 13:12:01;;;;;;;1999.90;999.90;;;;;;;;;;6123995;23;20357;-74
2023/04/21 13:14:46;;;;;;;1999.90;999.90;;;;;;;;;;6124670;23;20175;-73
2023/04/21 13:17:33;;;;;;;1999.90;999.90;;;;;;;;;;6125040;23;20183;-74
2023/04/21 13:20:18;;;;;;;1999.90;999.90;;;;;;;;;;6124799;23;20168;-73
2023/04/21 13:23:03;;;;;;;1999.90;999.90;;;;;;;;;;6125037;23;20283;-74
2023/04/21 13:25:49;;;;;;;1999.90;999.90;;;;;;;;;;6125147;23;20171;-74
2023/04/21 13:28:35;;;;;;;1999.90;999.90;;;;;;;;;;6124775;23;20188;-73
2023/04/21 13:31:19;;;;;;;1999.90;999.90;;;;;;;;;;6123942;23;20564;-73
2023/04/21 13:34:06;;;;;;;1999.90;999.90;;;;;;;;;;6123786;23;20219;-76
2023/04/21 13:36:50;;;;;;;1999.90;999.90;;;;;;;;;;6123776;23;20395;-75
2023/04/21 13:39:35;;;;;;;1999.90;999.90;;;;;;;;;;6124742;23;20171;-73
2023/04/21 13:42:20;;;;;;;1999.90;999.90;;;;;;;;;;6124583;23;20207;-71
2023/04/21 13:45:06;;;;;;;1999.90;999.90;;;;;;;;;;6124183;23;20557;-72
2023/04/21 13:47:51;;;;;;;1999.90;999.90;;;;;;;;;;6124726;23;20514;-72
2023/04/21 13:50:38;;;;;;;1999.90;999.90;;;;;;;;;;6123854;23;20494;-72
2023/04/21 13:53:22;;;;;;;1999.90;999.90;;;;;;;;;;6124293;23;20222;-73
2023/04/21 13:56:08;;;;;;;1999.90;999.90;;;;;;;;;;6124742;23;20171;-73
2023/04/21 13:58:54;;;;;;;1999.90;999.90;;;;;;;;;;6124806;23;20172;-73
2023/04/21 14:01:40;;;;;;;1999.90;999.90;;;;;;;;;;6124702;23;20168;-73
2023/04/21 14:04:25;;;;;;;1999.90;999.90;;;;;;;;;;6124789;23;20171;-72
2023/04/21 14:07:13;;;;;;;1999.90;999.90;;;;;;;;;;6124629;23;20287;-72
2023/04/21 14:09:58;;;;;;;1999.90;999.90;;;;;;;;;;6124548;23;20167;-73
2023/04/21 14:12:44;;;;;;;1999.90;999.90;;;;;;;;;;6124582;23;20203;-72
2023/04/21 14:15:29;;;;;;;1999.90;999.90;;;;;;;;;;6123215;23;20941;-72
2023/04/21 14:18:14;;;;;;;1999.90;999.90;;;;;;;;;;6124588;23;20183;-73
2023/04/21 14:20:58;;;;;;;1999.90;999.90;;;;;;;;;;6124287;23;20534;-71
2023/04/21 14:23:45;;;;;;;1999.90;999.90;;;;;;;;;;6123714;23;20203;-72
2023/04/21 14:26:31;;;;;;;1999.90;999.90;;;;;;;;;;6124500;23;20172;-72
2023/04/21 14:29:15;;;;;;;1999.90;999.90;;;;;;;;;;6124464;23;20515;-72
2023/04/21 14:32:00;;;;;;;1999.90;999.90;;;;;;;;;;6124261;23;20231;-72
2023/04/21 14:34:45;;;;;;;1999.90;999.90;;;;;;;;;;6123280;23;20168;-72
2023/04/21 14:37:31;;;;;;;1999.90;999.90;;;;;;;;;;6123071;23;20379;-71
2023/04/21 14:40:17;;;;;;;1999.90;999.90;;;;;;;;;;6123751;23;20171;-72
2023/04/21 14:43:03;;;;;;;1999.90;999.90;;;;;;;;;;6124378;23;20284;-73
2023/04/21 14:45:48;;;;;;;1999.90;999.90;;;;;;;;;;6124118;23;20224;-73
2023/04/21 14:48:33;;;;;;;1999.90;999.90;;;;;;;;;;6123443;23;20251;-72
2023/04/21 14:51:18;;;;;;;1999.90;999.90;;;;;;;;;;6121919;23;20672;-72
2023/04/21 14:54:03;;;;;;;1999.90;999.90;;;;;;;;;;6121508;23;20287;-73
2023/04/21 14:56:49;;;;;;;1999.90;999.90;;;;;;;;;;6123336;23;20171;-72
2023/04/21 14:59:34;;;;;;;1999.90;999.90;;;;;;;;;;6123701;23;20219;-72
2023/04/21 15:02:20;;;;;;;1999.90;999.90;;;;;;;;;;6124277;23;20684;-72
2023/04/21 15:05:06;;;;;;;1999.90;999.90;;;;;;;;;;6124422;23;20175;-72
2023/04/21 15:07:51;;;;;;;1999.90;999.90;;;;;;;;;;6125140;23;20695;-73
2023/04/21 15:10:36;;;;;;;1999.90;999.90;;;;;;;;;;6124592;23;20467;-73
2023/04/21 15:13:23;;;;;;;1999.90;999.90;;;;;;;;;;6125967;23;20323;-72
2023/04/21 15:16:08;;;;;;;1999.90;999.90;;;;;;;;;;6125976;23;20828;-72
2023/04/21 15:18:54;;;;;;;1999.90;999.90;;;;;;;;;;6125422;23;20183;-72
2023/04/21 15:21:39;;;;;;;1999.90;999.90;;;;;;;;;;6126163;23;20502;-72
2023/04/21 15:24:24;;;;;;;1999.90;999.90;;;;;;;;;;6127628;23;20725;-71
2023/04/21 15:27:09;;;;;;;1999.90;999.90;;;;;;;;;;6130192;23;20217;-72
2023/04/21 15:29:55;;;;;;;1999.90;999.90;;;;;;;;;;6131354;23;20171;-73
2023/04/21 15:32:40;;;;;;;1999.90;999.90;;;;;;;;;;6132320;23;20214;-73
2023/04/21 15:35:25;;;;;;;1999.90;999.90;;;;;;;;;;6127719;23;20172;-72
2023/04/21 15:38:10;;;;;;;1999.90;999.90;;;;;;;;;;6129482;23;20212;-73
2023/04/21 15:40:55;;;;;;;1999.90;999.90;;;;;;;;;;6129102;23;20685;-73
2023/04/21 15:43:40;;;;;;;1999.90;999.90;;;;;;;;;;6129462;23;20603;-72
2023/04/21 15:46:27;;;;;;;1999.90;999.90;;;;;;;;;;6129757;23;20219;-73
2023/04/21 15:49:11;;;;;;;1999.90;999.90;;;;;;;;;;6125761;23;20620;-72
2023/04/21 15:51:57;;;;;;;1999.90;999.90;;;;;;;;;;6125244;23;20294;-72
2023/04/21 15:54:42;;;;;;;1999.90;999.90;;;;;;;;;;6124112;23;20251;-72
2023/04/21 15:57:28;;;;;;;1999.90;999.90;;;;;;;;;;6125907;23;20167;-71